METAR Data
IDs: Format: Raw Decoded Include TAF

Data at: 0240 UTC 29 May 2022

LOWL 290220Z AUTO VRB01KT 9999 FEW080 06/05 Q1013